sensor_id;sensor_type;location;lat;lon;timestamp;pressure;altitude;pressure_sealevel;temperature;humidity
21185;BME280;18176;49.502;11.754;2023-10-08T00:03:00;97464.88;;;19.42;52.28
21185;BME280;18176;49.502;11.754;2023-10-08T00:07:03;97485.84;;;19.45;52.77
21185;BME280;18176;49.502;11.754;2023-10-08T00:11:07;97475.09;;;19.25;52.89
21185;BME280;18176;49.502;11.754;2023-10-08T00:15:08;97489.34;;;19.40;53.09
21185;BME280;18176;49.502;11.754;2023-10-08T00:19:11;97483.19;;;19.20;53.17
21185;BME280;18176;49.502;11.754;2023-10-08T00:23:13;97472.97;;;19.27;53.21
21185;BME280;18176;49.502;11.754;2023-10-08T00:27:17;97495.50;;;19.41;53.19
21185;BME280;18176;49.502;11.754;2023-10-08T00:31:19;97479.41;;;19.21;53.10
21185;BME280;18176;49.502;11.754;2023-10-08T00:35:23;97471.63;;;19.24;53.12
21185;BME280;18176;49.502;11.754;2023-10-08T00:39:23;97495.53;;;19.36;53.31
21185;BME280;18176;49.502;11.754;2023-10-08T00:43:33;97481.00;;;19.32;53.06
21185;BME280;18176;49.502;11.754;2023-10-08T00:47:34;97500.63;;;19.37;52.93
21185;BME280;18176;49.502;11.754;2023-10-08T00:51:40;97501.97;;;19.50;52.42
21185;BME280;18176;49.502;11.754;2023-10-08T00:55:43;97498.69;;;19.63;52.08
21185;BME280;18176;49.502;11.754;2023-10-08T00:59:54;97493.91;;;19.40;52.74
21185;BME280;18176;49.502;11.754;2023-10-08T01:03:56;97491.47;;;19.53;52.27
21185;BME280;18176;49.502;11.754;2023-10-08T01:08:00;97486.09;;;19.43;52.58
21185;BME280;18176;49.502;11.754;2023-10-08T01:12:12;97472.94;;;19.42;52.25
21185;BME280;18176;49.502;11.754;2023-10-08T01:16:19;97481.25;;;19.55;52.50
21185;BME280;18176;49.502;11.754;2023-10-08T01:20:21;97474.53;;;19.53;52.03
21185;BME280;18176;49.502;11.754;2023-10-08T01:24:33;97465.41;;;19.49;52.28
21185;BME280;18176;49.502;11.754;2023-10-08T01:28:38;97461.59;;;19.60;51.92
21185;BME280;18176;49.502;11.754;2023-10-08T01:32:40;97461.13;;;19.43;52.07
21185;BME280;18176;49.502;11.754;2023-10-08T01:36:41;97466.97;;;19.60;52.05
21185;BME280;18176;49.502;11.754;2023-10-08T01:40:44;97476.66;;;19.61;51.86
21185;BME280;18176;49.502;11.754;2023-10-08T01:44:49;97474.41;;;19.83;51.63
21185;BME280;18176;49.502;11.754;2023-10-08T01:48:52;97451.44;;;19.47;52.44
21185;BME280;18176;49.502;11.754;2023-10-08T01:53:01;97462.72;;;19.44;52.26
21185;BME280;18176;49.502;11.754;2023-10-08T01:57:05;97485.28;;;19.53;52.26
21185;BME280;18176;49.502;11.754;2023-10-08T02:01:07;97479.09;;;19.52;52.69
21185;BME280;18176;49.502;11.754;2023-10-08T02:05:10;97483.38;;;19.58;52.31
21185;BME280;18176;49.502;11.754;2023-10-08T02:09:13;97485.84;;;19.50;52.50
21185;BME280;18176;49.502;11.754;2023-10-08T02:13:16;97482.34;;;19.44;53.01
21185;BME280;18176;49.502;11.754;2023-10-08T02:17:16;97491.19;;;19.35;53.20
21185;BME280;18176;49.502;11.754;2023-10-08T02:21:17;97488.00;;;19.43;53.17
21185;BME280;18176;49.502;11.754;2023-10-08T02:25:17;97499.81;;;19.37;53.45
21185;BME280;18176;49.502;11.754;2023-10-08T02:29:24;97494.97;;;19.34;53.43
21185;BME280;18176;49.502;11.754;2023-10-08T02:33:26;97495.81;;;19.24;53.70
21185;BME280;18176;49.502;11.754;2023-10-08T02:37:28;97488.53;;;19.30;53.45
21185;BME280;18176;49.502;11.754;2023-10-08T02:41:28;97499.28;;;19.40;53.59
21185;BME280;18176;49.502;11.754;2023-10-08T02:45:31;97485.59;;;19.21;53.77
21185;BME280;18176;49.502;11.754;2023-10-08T02:49:35;97493.41;;;19.08;54.33
21185;BME280;18176;49.502;11.754;2023-10-08T02:53:38;97469.78;;;18.89;54.61
21185;BME280;18176;49.502;11.754;2023-10-08T02:57:39;97506.56;;;19.19;54.54
21185;BME280;18176;49.502;11.754;2023-10-08T03:01:44;97513.25;;;19.12;54.46
21185;BME280;18176;49.502;11.754;2023-10-08T03:05:48;97508.97;;;18.90;54.97
21185;BME280;18176;49.502;11.754;2023-10-08T03:09:50;97519.19;;;18.99;55.21
21185;BME280;18176;49.502;11.754;2023-10-08T03:14:01;97524.56;;;18.99;54.75
21185;BME280;18176;49.502;11.754;2023-10-08T03:18:10;97521.31;;;19.07;54.67
21185;BME280;18176;49.502;11.754;2023-10-08T03:22:12;97507.34;;;19.10;54.75
21185;BME280;18176;49.502;11.754;2023-10-08T03:26:17;97522.94;;;19.03;55.40
21185;BME280;18176;49.502;11.754;2023-10-08T03:30:31;97527.50;;;18.87;55.77
21185;BME280;18176;49.502;11.754;2023-10-08T03:34:44;97519.69;;;18.70;56.46
21185;BME280;18176;49.502;11.754;2023-10-08T03:38:45;97537.97;;;18.73;56.50
21185;BME280;18176;49.502;11.754;2023-10-08T03:42:51;97520.78;;;18.79;55.91
21185;BME280;18176;49.502;11.754;2023-10-08T03:46:53;97549.00;;;18.92;55.85
21185;BME280;18176;49.502;11.754;2023-10-08T03:50:57;97525.91;;;18.76;56.41
21185;BME280;18176;49.502;11.754;2023-10-08T03:55:05;97516.94;;;18.30;57.10
21185;BME280;18176;49.502;11.754;2023-10-08T03:59:19;97548.16;;;18.66;57.14
21185;BME280;18176;49.502;11.754;2023-10-08T04:03:31;97549.75;;;18.67;57.00
21185;BME280;18176;49.502;11.754;2023-10-08T04:07:51;97555.41;;;18.71;56.98
21185;BME280;18176;49.502;11.754;2023-10-08T04:12:22;97550.84;;;18.61;57.42
21185;BME280;18176;49.502;11.754;2023-10-08T04:16:24;97566.38;;;18.54;58.09
21185;BME280;18176;49.502;11.754;2023-10-08T04:20:25;97569.59;;;18.46;58.42
21185;BME280;18176;49.502;11.754;2023-10-08T04:24:39;97566.63;;;18.48;58.38
21185;BME280;18176;49.502;11.754;2023-10-08T04:28:41;97573.38;;;18.65;58.35
21185;BME280;18176;49.502;11.754;2023-10-08T04:32:41;97577.38;;;18.48;59.05
21185;BME280;18176;49.502;11.754;2023-10-08T04:36:45;97580.63;;;18.55;59.05
21185;BME280;18176;49.502;11.754;2023-10-08T04:40:54;97575.53;;;18.68;58.94
21185;BME280;18176;49.502;11.754;2023-10-08T04:45:00;97542.75;;;18.46;59.09
21185;BME280;18176;49.502;11.754;2023-10-08T04:49:01;97571.78;;;18.69;58.96
21185;BME280;18176;49.502;11.754;2023-10-08T04:53:07;97570.16;;;18.63;59.22
21185;BME280;18176;49.502;11.754;2023-10-08T04:57:10;97572.59;;;18.75;59.11
21185;BME280;18176;49.502;11.754;2023-10-08T05:01:13;97566.41;;;18.74;59.16
21185;BME280;18176;49.502;11.754;2023-10-08T05:05:18;97557.78;;;18.52;60.18
21185;BME280;18176;49.502;11.754;2023-10-08T05:09:27;97535.75;;;18.45;59.71
21185;BME280;18176;49.502;11.754;2023-10-08T05:13:47;97544.94;;;18.64;59.71
21185;BME280;18176;49.502;11.754;2023-10-08T05:18:04;97555.09;;;18.47;60.36
21185;BME280;18176;49.502;11.754;2023-10-08T05:22:21;97540.06;;;18.51;60.58
21185;BME280;18176;49.502;11.754;2023-10-08T05:26:41;97546.50;;;18.45;60.60
21185;BME280;18176;49.502;11.754;2023-10-08T05:30:49;97492.16;;;18.03;61.14
21185;BME280;18176;49.502;11.754;2023-10-08T05:35:09;97521.78;;;18.43;60.44
21185;BME280;18176;49.502;11.754;2023-10-08T05:39:21;97496.25;;;18.26;60.99
21185;BME280;18176;49.502;11.754;2023-10-08T05:43:33;97526.06;;;18.44;61.06
21185;BME280;18176;49.502;11.754;2023-10-08T05:47:49;97519.59;;;18.35;61.50
21185;BME280;18176;49.502;11.754;2023-10-08T05:52:05;97500.28;;;18.23;61.96
21185;BME280;18176;49.502;11.754;2023-10-08T05:56:23;97519.59;;;18.35;61.99
21185;BME280;18176;49.502;11.754;2023-10-08T06:00:40;97528.81;;;18.54;61.71
21185;BME280;18176;49.502;11.754;2023-10-08T06:05:05;97533.94;;;18.71;61.24
21185;BME280;18176;49.502;11.754;2023-10-08T06:09:18;97511.66;;;18.70;61.32
21185;BME280;18176;49.502;11.754;2023-10-08T06:13:32;97513.78;;;18.68;61.18
21185;BME280;18176;49.502;11.754;2023-10-08T06:17:52;97523.47;;;18.64;61.40
21185;BME280;18176;49.502;11.754;2023-10-08T06:22:05;97527.75;;;18.70;61.79
21185;BME280;18176;49.502;11.754;2023-10-08T06:26:05;97516.47;;;18.63;62.15
21185;BME280;18176;49.502;11.754;2023-10-08T06:30:13;97525.09;;;18.75;61.83
21185;BME280;18176;49.502;11.754;2023-10-08T06:34:14;97526.94;;;18.60;62.90
21185;BME280;18176;49.502;11.754;2023-10-08T06:38:21;97533.41;;;18.74;62.91
21185;BME280;18176;49.502;11.754;2023-10-08T06:42:21;97564.81;;;18.68;62.93
21185;BME280;18176;49.502;11.754;2023-10-08T06:46:25;97565.88;;;18.77;62.99
21185;BME280;18176;49.502;11.754;2023-10-08T06:50:26;97561.59;;;18.66;62.71
21185;BME280;18176;49.502;11.754;2023-10-08T06:54:29;97576.66;;;18.98;61.94
21185;BME280;18176;49.502;11.754;2023-10-08T06:58:32;97590.63;;;19.25;61.26
21185;BME280;18176;49.502;11.754;2023-10-08T07:02:32;97593.31;;;19.05;61.01
21185;BME280;18176;49.502;11.754;2023-10-08T07:06:33;97605.66;;;18.96;61.18
21185;BME280;18176;49.502;11.754;2023-10-08T07:10:37;97637.38;;;18.99;61.24
21185;BME280;18176;49.502;11.754;2023-10-08T07:14:38;97623.69;;;19.10;60.48
21185;BME280;18176;49.502;11.754;2023-10-08T07:18:39;97613.19;;;18.93;60.73
21185;BME280;18176;49.502;11.754;2023-10-08T07:22:47;97621.78;;;19.16;61.21
21185;BME280;18176;49.502;11.754;2023-10-08T07:26:54;97607.84;;;19.04;61.73
21185;BME280;18176;49.502;11.754;2023-10-08T07:30:54;97599.75;;;18.99;62.07
21185;BME280;18176;49.502;11.754;2023-10-08T07:34:55;97592.78;;;19.08;62.06
21185;BME280;18176;49.502;11.754;2023-10-08T07:39:19;97597.09;;;19.24;61.77
21185;BME280;18176;49.502;11.754;2023-10-08T07:43:26;97612.69;;;19.57;60.65
21185;BME280;18176;49.502;11.754;2023-10-08T07:47:29;97669.69;;;19.69;60.20
21185;BME280;18176;49.502;11.754;2023-10-08T07:51:30;97664.31;;;19.79;59.28
21185;BME280;18176;49.502;11.754;2023-10-08T07:55:31;97676.09;;;20.08;58.62
21185;BME280;18176;49.502;11.754;2023-10-08T07:59:38;97684.69;;;20.20;58.23
21185;BME280;18176;49.502;11.754;2023-10-08T08:03:39;97682.28;;;20.04;58.57
21185;BME280;18176;49.502;11.754;2023-10-08T08:07:42;97713.22;;;20.16;58.04
21185;BME280;18176;49.502;11.754;2023-10-08T08:11:43;97708.38;;;20.28;58.22
21185;BME280;18176;49.502;11.754;2023-10-08T08:15:49;97716.44;;;20.18;58.54
21185;BME280;18176;49.502;11.754;2023-10-08T08:19:51;97696.03;;;19.72;59.13
21185;BME280;18176;49.502;11.754;2023-10-08T08:23:52;97710.00;;;19.99;59.23
21185;BME280;18176;49.502;11.754;2023-10-08T08:28:02;97711.06;;;20.08;59.17
21185;BME280;18176;49.502;11.754;2023-10-08T08:32:07;97706.41;;;20.59;58.35
21185;BME280;18176;49.502;11.754;2023-10-08T08:36:10;97702.22;;;20.97;56.45
21185;BME280;18176;49.502;11.754;2023-10-08T08:40:11;97683.25;;;21.22;56.20
21185;BME280;18176;49.502;11.754;2023-10-08T08:44:14;97680.66;;;20.97;56.12
21185;BME280;18176;49.502;11.754;2023-10-08T08:48:18;97665.78;;;20.51;57.71
21185;BME280;18176;49.502;11.754;2023-10-08T08:52:19;97647.03;;;20.15;59.05
21185;BME280;18176;49.502;11.754;2023-10-08T08:56:21;97639.22;;;20.24;58.72
21185;BME280;18176;49.502;11.754;2023-10-08T09:00:22;97634.06;;;20.38;58.51
21185;BME280;18176;49.502;11.754;2023-10-08T09:04:32;97626.03;;;20.12;59.12
21185;BME280;18176;49.502;11.754;2023-10-08T09:08:36;97649.19;;;20.13;59.48
21185;BME280;18176;49.502;11.754;2023-10-08T09:12:39;97671.50;;;20.24;59.57
21185;BME280;18176;49.502;11.754;2023-10-08T09:16:40;97648.38;;;20.18;59.72
21185;BME280;18176;49.502;11.754;2023-10-08T09:20:43;97665.28;;;20.34;59.54
21185;BME280;18176;49.502;11.754;2023-10-08T09:24:45;97680.91;;;20.37;59.61
21185;BME280;18176;49.502;11.754;2023-10-08T09:28:46;97684.88;;;20.49;59.20
21185;BME280;18176;49.502;11.754;2023-10-08T09:32:48;97693.84;;;20.24;59.22
21185;BME280;18176;49.502;11.754;2023-10-08T09:36:56;97709.47;;;19.97;60.82
21185;BME280;18176;49.502;11.754;2023-10-08T09:40:59;97705.16;;;20.16;60.42
21185;BME280;18176;49.502;11.754;2023-10-08T09:45:02;97715.63;;;20.38;60.26
21185;BME280;18176;49.502;11.754;2023-10-08T09:49:06;97722.34;;;20.51;59.64
21185;BME280;18176;49.502;11.754;2023-10-08T09:53:14;97728.88;;;20.93;58.52
21185;BME280;18176;49.502;11.754;2023-10-08T09:57:18;97722.56;;;21.23;57.62
21185;BME280;18176;49.502;11.754;2023-10-08T10:01:21;97724.81;;;21.11;57.83
21185;BME280;18176;49.502;11.754;2023-10-08T10:05:23;97737.38;;;21.26;57.60
21185;BME280;18176;49.502;11.754;2023-10-08T10:09:26;97744.63;;;21.30;57.80
21185;BME280;18176;49.502;11.754;2023-10-08T10:13:28;97732.84;;;21.16;58.03
21185;BME280;18176;49.502;11.754;2023-10-08T10:17:29;97740.25;;;21.44;57.83
21185;BME280;18176;49.502;11.754;2023-10-08T10:21:41;97739.25;;;22.08;56.40
21185;BME280;18176;49.502;11.754;2023-10-08T10:25:45;97737.50;;;21.93;55.70
21185;BME280;18176;49.502;11.754;2023-10-08T10:29:45;97744.41;;;22.62;54.99
21185;BME280;18176;49.502;11.754;2023-10-08T10:33:47;97745.06;;;22.49;54.61
21185;BME280;18176;49.502;11.754;2023-10-08T10:37:47;97739.53;;;22.59;54.15
21185;BME280;18176;49.502;11.754;2023-10-08T10:41:53;97739.47;;;22.92;53.46
21185;BME280;18176;49.502;11.754;2023-10-08T10:46:00;97720.13;;;22.33;54.32
21185;BME280;18176;49.502;11.754;2023-10-08T10:50:22;97742.75;;;22.37;54.37
21185;BME280;18176;49.502;11.754;2023-10-08T10:54:29;97744.28;;;21.81;56.10
21185;BME280;18176;49.502;11.754;2023-10-08T10:58:36;97713.84;;;21.80;56.46
21185;BME280;18176;49.502;11.754;2023-10-08T11:02:38;97728.75;;;21.67;56.58
21185;BME280;18176;49.502;11.754;2023-10-08T11:06:40;97712.00;;;21.71;56.83
21185;BME280;18176;49.502;11.754;2023-10-08T11:10:43;97694.81;;;22.76;55.27
21185;BME280;18176;49.502;11.754;2023-10-08T11:14:49;97725.22;;;23.48;53.06
21185;BME280;18176;49.502;11.754;2023-10-08T11:18:50;97733.50;;;22.72;53.75
21185;BME280;18176;49.502;11.754;2023-10-08T11:22:55;97754.97;;;22.58;54.96
21185;BME280;18176;49.502;11.754;2023-10-08T11:27:17;97764.84;;;22.44;55.07
21185;BME280;18176;49.502;11.754;2023-10-08T11:31:29;97749.09;;;21.94;56.78
21185;BME280;18176;49.502;11.754;2023-10-08T11:35:32;97771.03;;;21.77;57.33
21185;BME280;18176;49.502;11.754;2023-10-08T11:39:39;97759.75;;;21.26;59.12
21185;BME280;18176;49.502;11.754;2023-10-08T11:43:42;97751.34;;;21.38;58.91
21185;BME280;18176;49.502;11.754;2023-10-08T11:47:46;97745.59;;;21.49;58.46
21185;BME280;18176;49.502;11.754;2023-10-08T11:51:47;97764.38;;;21.64;58.18
21185;BME280;18176;49.502;11.754;2023-10-08T11:55:50;97788.25;;;21.42;58.72
21185;BME280;18176;49.502;11.754;2023-10-08T11:59:54;97806.78;;;20.90;60.74
21185;BME280;18176;49.502;11.754;2023-10-08T12:03:57;97806.34;;;20.38;61.64
21185;BME280;18176;49.502;11.754;2023-10-08T12:07:58;97810.63;;;20.03;62.52
21185;BME280;18176;49.502;11.754;2023-10-08T12:11:58;97825.91;;;19.78;63.64
21185;BME280;18176;49.502;11.754;2023-10-08T12:16:01;97834.78;;;19.58;64.09
21185;BME280;18176;49.502;11.754;2023-10-08T12:20:13;97831.91;;;19.23;65.24
21185;BME280;18176;49.502;11.754;2023-10-08T12:24:21;97811.44;;;19.02;66.23
21185;BME280;18176;49.502;11.754;2023-10-08T12:28:21;97795.47;;;18.80;66.20
21185;BME280;18176;49.502;11.754;2023-10-08T12:32:21;97809.00;;;18.48;66.30
21185;BME280;18176;49.502;11.754;2023-10-08T12:36:26;97805.16;;;18.44;66.44
21185;BME280;18176;49.502;11.754;2023-10-08T12:40:33;97777.19;;;18.35;65.32
21185;BME280;18176;49.502;11.754;2023-10-08T12:44:39;97822.50;;;18.63;64.50
21185;BME280;18176;49.502;11.754;2023-10-08T12:48:40;97829.91;;;18.46;64.72
21185;BME280;18176;49.502;11.754;2023-10-08T12:52:44;97837.34;;;18.39;65.38
21185;BME280;18176;49.502;11.754;2023-10-08T12:56:50;97842.88;;;18.59;64.89
21185;BME280;18176;49.502;11.754;2023-10-08T13:00:53;97850.75;;;18.39;64.71
21185;BME280;18176;49.502;11.754;2023-10-08T13:05:01;97835.22;;;18.41;64.50
21185;BME280;18176;49.502;11.754;2023-10-08T13:09:15;97846.81;;;18.88;63.15
21185;BME280;18176;49.502;11.754;2023-10-08T13:13:15;97835.25;;;18.88;62.84
21185;BME280;18176;49.502;11.754;2023-10-08T13:17:16;97852.28;;;19.04;62.19
21185;BME280;18176;49.502;11.754;2023-10-08T13:21:16;97852.78;;;19.01;62.35
21185;BME280;18176;49.502;11.754;2023-10-08T13:25:22;97850.84;;;18.91;62.16
21185;BME280;18176;49.502;11.754;2023-10-08T13:29:23;97852.34;;;18.67;63.20
21185;BME280;18176;49.502;11.754;2023-10-08T13:33:24;97858.28;;;18.42;64.07
21185;BME280;18176;49.502;11.754;2023-10-08T13:37:24;97832.22;;;18.06;65.27
21185;BME280;18176;49.502;11.754;2023-10-08T13:41:27;97847.81;;;18.09;65.42
21185;BME280;18176;49.502;11.754;2023-10-08T13:45:30;97835.41;;;17.98;65.61
21185;BME280;18176;49.502;11.754;2023-10-08T13:49:34;97837.16;;;18.19;65.19
21185;BME280;18176;49.502;11.754;2023-10-08T13:53:38;97824.34;;;18.26;64.01
21185;BME280;18176;49.502;11.754;2023-10-08T13:57:45;97841.94;;;18.44;63.65
21185;BME280;18176;49.502;11.754;2023-10-08T14:01:46;97847.69;;;18.57;63.18
21185;BME280;18176;49.502;11.754;2023-10-08T14:05:50;97844.56;;;18.70;62.54
21185;BME280;18176;49.502;11.754;2023-10-08T14:09:51;97856.94;;;18.71;63.13
21185;BME280;18176;49.502;11.754;2023-10-08T14:13:54;97843.00;;;18.43;62.67
21185;BME280;18176;49.502;11.754;2023-10-08T14:17:56;97846.63;;;18.27;63.84
21185;BME280;18176;49.502;11.754;2023-10-08T14:22:02;97863.16;;;18.45;63.22
21185;BME280;18176;49.502;11.754;2023-10-08T14:26:07;97855.09;;;18.13;64.35
21185;BME280;18176;49.502;11.754;2023-10-08T14:30:11;97865.84;;;17.87;65.07
21185;BME280;18176;49.502;11.754;2023-10-08T14:34:12;97851.94;;;17.63;65.87
21185;BME280;18176;49.502;11.754;2023-10-08T14:38:42;97861.53;;;17.37;66.90
21185;BME280;18176;49.502;11.754;2023-10-08T14:42:55;97851.31;;;17.34;67.32
21185;BME280;18176;49.502;11.754;2023-10-08T14:47:04;97841.97;;;17.59;67.51
21185;BME280;18176;49.502;11.754;2023-10-08T14:51:04;97844.75;;;17.95;66.04
21185;BME280;18176;49.502;11.754;2023-10-08T14:55:06;97823.34;;;17.74;66.15
21185;BME280;18176;49.502;11.754;2023-10-08T14:59:06;97822.81;;;17.72;66.50
21185;BME280;18176;49.502;11.754;2023-10-08T15:03:09;97839.44;;;17.74;66.30
21185;BME280;18176;49.502;11.754;2023-10-08T15:07:10;97837.72;;;17.63;67.26
21185;BME280;18176;49.502;11.754;2023-10-08T15:11:15;97841.44;;;17.62;67.20
21185;BME280;18176;49.502;11.754;2023-10-08T15:15:15;97849.59;;;17.50;67.98
21185;BME280;18176;49.502;11.754;2023-10-08T15:19:19;97853.03;;;17.45;67.62
21185;BME280;18176;49.502;11.754;2023-10-08T15:23:19;97841.22;;;17.41;67.87
21185;BME280;18176;49.502;11.754;2023-10-08T15:27:22;97825.53;;;17.28;68.08
21185;BME280;18176;49.502;11.754;2023-10-08T15:31:23;97825.00;;;17.31;67.59
21185;BME280;18176;49.502;11.754;2023-10-08T15:35:26;97838.47;;;17.36;67.95
21185;BME280;18176;49.502;11.754;2023-10-08T15:39:27;97825.59;;;17.33;68.02
21185;BME280;18176;49.502;11.754;2023-10-08T15:43:27;97833.84;;;17.32;68.46
21185;BME280;18176;49.502;11.754;2023-10-08T15:47:27;97832.00;;;17.32;68.46
21185;BME280;18176;49.502;11.754;2023-10-08T15:51:31;97839.25;;;17.10;69.55
21185;BME280;18176;49.502;11.754;2023-10-08T15:55:32;97822.41;;;16.93;69.67
21185;BME280;18176;49.502;11.754;2023-10-08T15:59:32;97764.28;;;16.50;69.75
21185;BME280;18176;49.502;11.754;2023-10-08T16:03:34;97842.81;;;16.99;69.82
21185;BME280;18176;49.502;11.754;2023-10-08T16:07:39;97850.66;;;16.84;70.72
21185;BME280;18176;49.502;11.754;2023-10-08T16:11:40;97852.28;;;16.85;70.88
21185;BME280;18176;49.502;11.754;2023-10-08T16:15:40;97852.28;;;16.85;70.69
21185;BME280;18176;49.502;11.754;2023-10-08T16:19:41;97858.78;;;16.89;71.05
21185;BME280;18176;49.502;11.754;2023-10-08T16:23:44;97848.81;;;16.84;70.63
21185;BME280;18176;49.502;11.754;2023-10-08T16:27:46;97854.09;;;16.63;71.26
21185;BME280;18176;49.502;11.754;2023-10-08T16:31:48;97874.56;;;16.69;71.63
21185;BME280;18176;49.502;11.754;2023-10-08T16:35:48;97869.19;;;16.69;71.83
21185;BME280;18176;49.502;11.754;2023-10-08T16:39:52;97872.06;;;16.84;71.20
21185;BME280;18176;49.502;11.754;2023-10-08T16:43:54;97878.81;;;16.70;71.76
21185;BME280;18176;49.502;11.754;2023-10-08T16:47:54;97877.78;;;16.71;71.17
21185;BME280;18176;49.502;11.754;2023-10-08T16:51:56;97879.25;;;16.62;71.24
21185;BME280;18176;49.502;11.754;2023-10-08T16:56:00;97835.78;;;16.22;72.47
21185;BME280;18176;49.502;11.754;2023-10-08T17:00:00;97874.06;;;16.39;72.83
21185;BME280;18176;49.502;11.754;2023-10-08T17:04:08;97875.50;;;16.30;73.66
21185;BME280;18176;49.502;11.754;2023-10-08T17:08:10;97878.06;;;16.08;74.13
21185;BME280;18176;49.502;11.754;2023-10-08T17:12:13;97872.09;;;16.17;73.76
21185;BME280;18176;49.502;11.754;2023-10-08T17:16:16;97869.00;;;16.26;73.90
21185;BME280;18176;49.502;11.754;2023-10-08T17:20:17;97854.09;;;15.96;74.72
21185;BME280;18176;49.502;11.754;2023-10-08T17:24:20;97883.91;;;16.22;74.34
21185;BME280;18176;49.502;11.754;2023-10-08T17:28:23;97872.25;;;16.11;74.76
21185;BME280;18176;49.502;11.754;2023-10-08T17:32:23;97850.94;;;15.99;74.81
21185;BME280;18176;49.502;11.754;2023-10-08T17:36:24;97876.13;;;16.03;75.52
21185;BME280;18176;49.502;11.754;2023-10-08T17:40:24;97863.44;;;15.82;75.05
21185;BME280;18176;49.502;11.754;2023-10-08T17:44:28;97883.22;;;15.81;75.69
21185;BME280;18176;49.502;11.754;2023-10-08T17:48:31;97891.41;;;15.91;76.09
21185;BME280;18176;49.502;11.754;2023-10-08T17:52:34;97921.31;;;15.88;75.72
21185;BME280;18176;49.502;11.754;2023-10-08T17:56:34;97879.97;;;15.79;76.35
21185;BME280;18176;49.502;11.754;2023-10-08T18:00:37;97892.16;;;16.03;75.53
21185;BME280;18176;49.502;11.754;2023-10-08T18:04:40;97892.16;;;16.03;75.43
21185;BME280;18176;49.502;11.754;2023-10-08T18:08:41;97898.19;;;16.10;74.80
21185;BME280;18176;49.502;11.754;2023-10-08T18:12:42;97865.63;;;16.13;74.08
21185;BME280;18176;49.502;11.754;2023-10-08T18:16:46;97873.41;;;16.32;73.75
21185;BME280;18176;49.502;11.754;2023-10-08T18:20:46;97883.09;;;16.04;74.33
21185;BME280;18176;49.502;11.754;2023-10-08T18:24:50;97881.25;;;16.22;73.22
21185;BME280;18176;49.502;11.754;2023-10-08T18:28:51;97886.44;;;16.28;73.59
21185;BME280;18176;49.502;11.754;2023-10-08T18:32:54;97866.75;;;16.17;73.97
21185;BME280;18176;49.502;11.754;2023-10-08T18:36:55;97870.16;;;16.30;73.51
21185;BME280;18176;49.502;11.754;2023-10-08T18:40:58;97855.88;;;16.07;74.37
21185;BME280;18176;49.502;11.754;2023-10-08T18:45:01;97847.28;;;16.05;74.35
21185;BME280;18176;49.502;11.754;2023-10-08T18:49:05;97853.41;;;15.89;75.43
21185;BME280;18176;49.502;11.754;2023-10-08T18:53:08;97861.50;;;15.78;76.25
21185;BME280;18176;49.502;11.754;2023-10-08T18:57:08;97844.84;;;15.87;75.71
21185;BME280;18176;49.502;11.754;2023-10-08T19:01:10;97868.09;;;16.03;75.31
21185;BME280;18176;49.502;11.754;2023-10-08T19:05:13;97836.44;;;15.95;75.03
21185;BME280;18176;49.502;11.754;2023-10-08T19:09:16;97855.88;;;16.07;74.93
21185;BME280;18176;49.502;11.754;2023-10-08T19:13:17;97805.97;;;15.96;74.34
21185;BME280;18176;49.502;11.754;2023-10-08T19:17:19;97830.59;;;16.15;74.64
21185;BME280;18176;49.502;11.754;2023-10-08T19:21:23;97811.16;;;16.20;73.95
21185;BME280;18176;49.502;11.754;2023-10-08T19:25:26;97843.56;;;16.40;73.58
21185;BME280;18176;49.502;11.754;2023-10-08T19:29:27;97839.53;;;16.21;73.58
21185;BME280;18176;49.502;11.754;2023-10-08T19:33:30;97840.88;;;16.23;73.43
21185;BME280;18176;49.502;11.754;2023-10-08T19:37:34;97828.84;;;16.21;73.19
21185;BME280;18176;49.502;11.754;2023-10-08T19:41:35;97811.22;;;15.91;74.50
21185;BME280;18176;49.502;11.754;2023-10-08T19:45:38;97804.19;;;15.85;75.00
21185;BME280;18176;49.502;11.754;2023-10-08T19:49:39;97809.50;;;15.69;75.55
21185;BME280;18176;49.502;11.754;2023-10-08T19:53:44;97814.41;;;15.88;74.82
21185;BME280;18176;49.502;11.754;2023-10-08T19:57:47;97819.97;;;16.03;74.13
21185;BME280;18176;49.502;11.754;2023-10-08T20:01:48;97819.25;;;15.91;74.61
21185;BME280;18176;49.502;11.754;2023-10-08T20:05:49;97805.94;;;15.63;75.52
21185;BME280;18176;49.502;11.754;2023-10-08T20:09:52;97824.66;;;15.63;75.79
21185;BME280;18176;49.502;11.754;2023-10-08T20:13:53;97817.09;;;15.60;76.12
21185;BME280;18176;49.502;11.754;2023-10-08T20:17:54;97820.16;;;15.52;76.59
21185;BME280;18176;49.502;11.754;2023-10-08T20:21:55;97809.66;;;15.62;75.91
21185;BME280;18176;49.502;11.754;2023-10-08T20:25:57;97813.09;;;15.46;77.71
21185;BME280;18176;49.502;11.754;2023-10-08T20:29:58;97814.13;;;15.45;78.39
21185;BME280;18176;49.502;11.754;2023-10-08T20:33:58;97800.41;;;15.53;78.19
21185;BME280;18176;49.502;11.754;2023-10-08T20:37:59;97801.38;;;15.64;77.89
21185;BME280;18176;49.502;11.754;2023-10-08T20:42:03;97798.00;;;15.68;77.04
21185;BME280;18176;49.502;11.754;2023-10-08T20:46:05;97795.09;;;15.86;76.71
21185;BME280;18176;49.502;11.754;2023-10-08T20:50:08;97778.47;;;15.51;78.31
21185;BME280;18176;49.502;11.754;2023-10-08T20:54:28;97789.41;;;15.66;77.22
21185;BME280;18176;49.502;11.754;2023-10-08T20:58:33;97805.34;;;15.61;77.76
21185;BME280;18176;49.502;11.754;2023-10-08T21:02:33;97795.81;;;15.37;78.46
21185;BME280;18176;49.502;11.754;2023-10-08T21:06:35;97797.16;;;15.51;78.12
21185;BME280;18176;49.502;11.754;2023-10-08T21:10:37;97786.63;;;15.44;78.03
21185;BME280;18176;49.502;11.754;2023-10-08T21:15:03;97778.91;;;15.20;79.02
21185;BME280;18176;49.502;11.754;2023-10-08T21:19:05;97776.53;;;15.35;78.37